Aérodrome d'Arcachon-La Teste-de-Buch

METAR LFBD TAF LFBD
19 °C
16
°C
/
30
°C
12m
Leeftijd
03:11:48
LT
01:11
UTC
0 ft

1.000

2.000

3.000

4.000

5.000

VFR
<?= Yii::t('app', 'Wind direction') ?> <?= Yii::t('app', 'of'); ?>
020°
06:20
Zonsopgang
64%
Luchtvochtigheid
Windschering
Gesloten/sneeuw
Baanzicht
Baanconditie
Verticaal zicht
Min. zicht
CAVOK
Trend
Correctie
Speciaal rapport
1015 hPa
QNH
METAR LFBD 310100Z AUTO 02006KT CAVOK 19/12 Q1015 NOSIG
Onbewolkt
5 kt
5 kt
03:00
VFR
5 kt
04:00
VFR
5 kt
05:00
IFR
5 kt
06:00
IFR
5 kt
07:00
IFR
5 kt
08:00
VFR
5 kt
09:00
VFR
5 kt
10 km+
Zicht
Geen
Plafond
6 kt
Wind
metar-taf.com/LFCH

Metar-Taf.com

Visuele decoder

Wij en derden volgen je internetgedrag op onze website met cookies. Als je doorgaat, gaan we ervan uit dat je akkoord gaat met onze cookiebeleid.